createdAt,value
2023-02-25T00:00:23.175Z,5.70
2023-02-25T00:01:28.934Z,5.70
2023-02-25T00:02:31.411Z,5.70
2023-02-25T00:03:35.127Z,5.70
2023-02-25T00:04:38.177Z,5.80
2023-02-25T00:05:42.828Z,5.70
2023-02-25T00:06:46.870Z,5.70
2023-02-25T00:07:50.949Z,5.70
2023-02-25T00:08:54.721Z,5.70
2023-02-25T00:09:58.813Z,5.70
2023-02-25T00:11:07.058Z,5.70
2023-02-25T00:12:10.951Z,5.70
2023-02-25T00:13:18.514Z,5.70
2023-02-25T00:14:23.935Z,5.70
2023-02-25T00:15:26.795Z,5.80
2023-02-25T00:16:30.397Z,5.80
2023-02-25T00:17:33.508Z,5.80
2023-02-25T00:18:37.081Z,5.80
2023-02-25T00:19:39.760Z,5.80
2023-02-25T00:20:43.557Z,5.80
2023-02-25T00:21:46.611Z,5.80
2023-02-25T00:22:50.322Z,5.80
2023-02-25T00:23:53.755Z,5.80
2023-02-25T00:24:57.944Z,5.90
2023-02-25T00:26:01.808Z,5.80
2023-02-25T00:27:06.055Z,5.80
2023-02-25T00:28:09.197Z,5.80
2023-02-25T00:29:12.926Z,5.80
2023-02-25T00:30:17.156Z,5.80
2023-02-25T00:31:24.000Z,5.80
2023-02-25T00:32:28.147Z,5.80
2023-02-25T00:33:32.490Z,5.80
2023-02-25T00:34:35.901Z,5.80
2023-02-25T00:35:42.242Z,5.80
2023-02-25T00:36:44.935Z,5.80
2023-02-25T00:37:50.501Z,5.70
2023-02-25T00:38:56.729Z,5.80
2023-02-25T00:40:00.761Z,5.80
2023-02-25T00:41:13.952Z,5.60
2023-02-25T00:42:19.891Z,5.70
2023-02-25T00:43:22.734Z,5.70
2023-02-25T00:44:26.764Z,5.70
2023-02-25T00:45:32.427Z,5.70
2023-02-25T00:46:37.122Z,5.70
2023-02-25T00:47:39.896Z,5.70
2023-02-25T00:48:43.661Z,5.60
2023-02-25T00:49:48.091Z,5.60
2023-02-25T00:50:51.801Z,5.60
2023-02-25T00:51:57.547Z,5.60
2023-02-25T00:53:02.257Z,5.60
2023-02-25T00:54:05.456Z,5.60
2023-02-25T00:55:10.327Z,5.50
2023-02-25T00:56:15.804Z,5.60
2023-02-25T00:57:20.231Z,5.70
2023-02-25T00:58:22.837Z,5.70
2023-02-25T00:59:27.247Z,5.70
2023-02-25T01:00:40.511Z,5.70
2023-02-25T01:01:53.813Z,5.70
2023-02-25T01:02:58.379Z,5.70
2023-02-25T01:04:02.817Z,5.70
2023-02-25T01:05:06.118Z,5.70
2023-02-25T01:06:10.397Z,5.70
2023-02-25T01:07:13.061Z,5.60
2023-02-25T01:08:17.819Z,5.70
2023-02-25T01:09:20.762Z,5.70
2023-02-25T01:10:24.686Z,5.70
2023-02-25T01:11:30.856Z,5.70
2023-02-25T01:12:34.748Z,5.70
2023-02-25T01:13:37.422Z,5.60
2023-02-25T01:14:40.913Z,5.50
2023-02-25T01:15:45.444Z,5.40
2023-02-25T01:16:51.122Z,5.30
2023-02-25T01:17:53.678Z,5.30
2023-02-25T01:18:59.563Z,5.20
2023-02-25T01:20:02.467Z,5.20
2023-02-25T01:21:07.321Z,5.20
2023-02-25T01:22:10.284Z,5.20
2023-02-25T01:23:13.892Z,5.30
2023-02-25T01:24:20.937Z,5.30
2023-02-25T01:25:25.800Z,5.30
2023-02-25T01:26:31.934Z,5.00
2023-02-25T01:27:36.649Z,5.30
2023-02-25T01:28:39.437Z,5.30
2023-02-25T01:29:43.532Z,5.40
2023-02-25T01:30:47.566Z,5.30
2023-02-25T01:31:54.131Z,5.30
2023-02-25T01:32:59.441Z,5.30
2023-02-25T01:34:05.792Z,5.20
2023-02-25T01:35:09.106Z,5.00
2023-02-25T01:36:12.831Z,4.90
2023-02-25T01:37:15.756Z,4.80
2023-02-25T01:38:19.635Z,4.60
2023-02-25T01:39:26.273Z,4.70
2023-02-25T01:40:30.122Z,4.60
2023-02-25T01:41:35.679Z,4.60
2023-02-25T01:42:39.930Z,4.60
2023-02-25T01:43:43.206Z,4.50
2023-02-25T01:45:23.356Z,4.60
2023-02-25T01:46:28.700Z,4.50
2023-02-25T01:47:38.044Z,4.50
2023-02-25T01:48:43.148Z,4.50
2023-02-25T01:49:47.806Z,4.50
2023-02-25T01:50:55.342Z,4.60
2023-02-25T01:52:02.999Z,4.60
2023-02-25T01:53:08.958Z,4.60
2023-02-25T01:54:14.894Z,4.60
2023-02-25T01:55:19.300Z,4.60
2023-02-25T01:56:26.737Z,4.70
2023-02-25T01:57:30.309Z,4.70
2023-02-25T01:58:34.614Z,4.70
2023-02-25T01:59:41.264Z,4.70
2023-02-25T02:00:44.968Z,4.70
2023-02-25T02:01:51.005Z,4.70
2023-02-25T02:02:54.739Z,4.70
2023-02-25T02:03:58.639Z,4.80
2023-02-25T02:05:01.596Z,4.90
2023-02-25T02:06:12.208Z,4.90
2023-02-25T02:07:15.941Z,4.90
2023-02-25T02:08:21.249Z,5.00
2023-02-25T02:09:27.001Z,5.00
2023-02-25T02:10:31.211Z,5.00
2023-02-25T02:11:34.260Z,5.00
2023-02-25T02:12:43.583Z,5.10
2023-02-25T02:16:38.581Z,4.90
2023-02-25T02:17:51.795Z,5.00
2023-02-25T02:18:59.973Z,4.90
2023-02-25T02:20:20.741Z,4.90
2023-02-25T02:21:51.397Z,4.90
2023-02-25T02:23:25.561Z,5.00
2023-02-25T02:25:10.601Z,5.00
2023-02-25T02:26:50.207Z,5.10
2023-02-25T02:28:36.953Z,5.10
2023-02-25T02:30:15.769Z,5.10
2023-02-25T02:31:42.781Z,5.20
2023-02-25T02:32:57.302Z,5.20
2023-02-25T02:34:20.889Z,5.10
2023-02-25T02:35:32.888Z,5.10
2023-02-25T02:36:47.115Z,5.10
2023-02-25T02:38:01.199Z,5.20
2023-02-25T02:39:14.269Z,5.10
2023-02-25T02:40:35.004Z,5.20
2023-02-25T02:41:47.192Z,5.20
2023-02-25T02:43:07.655Z,5.30
2023-02-25T02:44:22.757Z,5.30
2023-02-25T02:45:35.586Z,5.30
2023-02-25T02:46:46.856Z,5.30
2023-02-25T02:47:58.381Z,5.30
2023-02-25T02:49:10.794Z,5.40
2023-02-25T02:50:22.985Z,5.30
2023-02-25T02:51:33.483Z,5.30
2023-02-25T02:52:42.510Z,5.30
2023-02-25T02:53:53.171Z,5.30
2023-02-25T02:55:02.342Z,5.40
2023-02-25T02:56:10.453Z,5.20
2023-02-25T02:57:16.470Z,5.20
2023-02-25T02:58:27.805Z,5.10
2023-02-25T02:59:37.422Z,5.00
2023-02-25T03:00:45.416Z,5.00
2023-02-25T03:01:54.257Z,5.00
2023-02-25T03:03:02.789Z,5.00
2023-02-25T03:04:10.505Z,5.10
2023-02-25T03:05:18.714Z,5.00
2023-02-25T03:06:29.109Z,5.00
2023-02-25T03:07:37.112Z,5.10
2023-02-25T03:08:46.392Z,5.20
2023-02-25T03:09:53.600Z,5.20
2023-02-25T03:10:57.584Z,5.20
2023-02-25T03:12:01.286Z,5.30
2023-02-25T03:13:08.348Z,5.20
2023-02-25T03:14:13.059Z,5.30
2023-02-25T03:15:16.961Z,5.20
2023-02-25T03:16:26.918Z,5.20
2023-02-25T03:17:41.231Z,5.20
2023-02-25T03:18:52.087Z,5.30
2023-02-25T03:20:05.437Z,5.30
2023-02-25T03:21:15.310Z,5.30
2023-02-25T03:22:27.610Z,5.20
2023-02-25T03:23:34.811Z,5.20
2023-02-25T03:24:46.551Z,5.20
2023-02-25T03:25:54.331Z,5.10
2023-02-25T03:26:58.616Z,5.10
2023-02-25T03:28:21.532Z,5.10
2023-02-25T03:29:29.097Z,4.90
2023-02-25T03:31:24.615Z,5.00
2023-02-25T03:32:37.028Z,4.90
2023-02-25T03:33:48.880Z,4.90
2023-02-25T03:34:58.335Z,4.80
2023-02-25T03:36:07.470Z,4.80
2023-02-25T03:37:20.108Z,4.90
2023-02-25T03:38:28.923Z,4.90
2023-02-25T03:39:40.764Z,4.90
2023-02-25T03:40:44.393Z,4.90
2023-02-25T03:41:53.470Z,4.90
2023-02-25T03:43:08.374Z,4.90
2023-02-25T03:44:20.769Z,4.90
2023-02-25T03:45:25.974Z,4.90
2023-02-25T03:46:32.608Z,4.90
2023-02-25T03:47:38.566Z,5.00
2023-02-25T03:48:44.668Z,5.00
2023-02-25T03:49:55.867Z,4.90
2023-02-25T03:51:03.197Z,4.80
2023-02-25T03:52:14.485Z,5.00
2023-02-25T03:53:19.673Z,5.00
2023-02-25T03:54:27.595Z,5.00
2023-02-25T03:55:31.933Z,5.00
2023-02-25T03:56:42.661Z,5.00
2023-02-25T03:57:49.655Z,5.10
2023-02-25T03:58:53.146Z,5.00
2023-02-25T03:59:57.344Z,4.90
2023-02-25T04:01:05.319Z,4.90
2023-02-25T04:02:10.401Z,4.80
2023-02-25T04:03:15.217Z,4.80
2023-02-25T04:04:19.203Z,4.80
2023-02-25T04:05:25.048Z,4.60
2023-02-25T04:06:28.958Z,4.50
2023-02-25T04:07:31.826Z,4.40
2023-02-25T04:08:36.199Z,4.30
2023-02-25T04:09:41.592Z,4.30
2023-02-25T04:10:46.479Z,4.30
2023-02-25T04:11:50.603Z,4.20
2023-02-25T04:12:54.478Z,4.10
2023-02-25T04:13:57.550Z,4.10
2023-02-25T04:15:02.044Z,4.10
2023-02-25T04:16:05.429Z,4.10
2023-02-25T04:17:11.859Z,4.10
2023-02-25T04:18:16.466Z,4.20
2023-02-25T04:19:20.536Z,4.10
2023-02-25T04:20:23.490Z,4.00
2023-02-25T04:21:30.348Z,4.00
2023-02-25T04:22:33.547Z,4.00
2023-02-25T04:23:38.323Z,3.90
2023-02-25T04:24:40.831Z,3.90
2023-02-25T04:25:44.908Z,3.80
2023-02-25T04:26:47.599Z,3.80
2023-02-25T04:27:51.682Z,3.70
2023-02-25T04:28:55.795Z,3.80
2023-02-25T04:29:59.628Z,3.80
2023-02-25T04:31:02.373Z,3.90
2023-02-25T04:32:06.247Z,3.90
2023-02-25T04:33:10.911Z,4.00
2023-02-25T04:34:17.094Z,4.00
2023-02-25T04:35:19.808Z,4.10
2023-02-25T04:36:26.238Z,4.10
2023-02-25T04:37:30.095Z,4.20
2023-02-25T04:38:32.852Z,4.10
2023-02-25T04:39:37.073Z,4.10
2023-02-25T04:40:40.078Z,4.20
2023-02-25T04:41:44.225Z,4.10
2023-02-25T04:42:47.358Z,4.00
2023-02-25T04:43:51.563Z,4.00
2023-02-25T04:44:56.687Z,3.90
2023-02-25T04:45:59.997Z,3.90
2023-02-25T04:47:03.784Z,3.90
2023-02-25T04:48:07.099Z,3.90
2023-02-25T04:49:12.346Z,4.00
2023-02-25T04:50:16.271Z,4.00
2023-02-25T04:51:21.269Z,4.00
2023-02-25T04:52:24.602Z,4.00
2023-02-25T04:53:28.590Z,4.00
2023-02-25T04:54:32.001Z,4.00
2023-02-25T04:55:37.578Z,4.00
2023-02-25T04:56:40.943Z,3.90
2023-02-25T04:57:44.635Z,3.90
2023-02-25T04:58:47.430Z,3.90
2023-02-25T04:59:52.073Z,3.90
2023-02-25T05:00:58.078Z,3.90
2023-02-25T05:02:02.446Z,3.90
2023-02-25T05:03:05.170Z,3.80
2023-02-25T05:04:09.806Z,3.70
2023-02-25T05:05:13.098Z,3.70
2023-02-25T05:06:18.083Z,3.70
2023-02-25T05:07:20.782Z,3.80
2023-02-25T05:08:24.659Z,3.80
2023-02-25T05:09:27.778Z,3.80
2023-02-25T05:10:31.823Z,3.80
2023-02-25T05:11:34.633Z,3.80
2023-02-25T05:12:38.618Z,3.90
2023-02-25T05:13:41.099Z,4.00
2023-02-25T05:14:45.369Z,4.00
2023-02-25T05:15:48.488Z,3.90
2023-02-25T05:16:52.712Z,3.90
2023-02-25T05:17:55.490Z,4.00
2023-02-25T05:18:59.419Z,3.90
2023-02-25T05:20:02.724Z,3.80
2023-02-25T05:21:10.140Z,3.80
2023-02-25T05:22:14.131Z,3.80
2023-02-25T05:23:17.853Z,3.80
2023-02-25T05:24:20.486Z,3.70
2023-02-25T05:25:25.526Z,3.80
2023-02-25T05:26:28.477Z,3.80
2023-02-25T05:27:31.831Z,3.80
2023-02-25T05:28:34.625Z,3.80
2023-02-25T05:29:38.608Z,3.70
2023-02-25T05:30:41.542Z,3.80
2023-02-25T05:31:45.513Z,3.80
2023-02-25T05:32:48.815Z,3.70
2023-02-25T05:33:52.959Z,3.60
2023-02-25T05:34:56.187Z,3.60
2023-02-25T05:36:00.797Z,3.60
2023-02-25T05:37:03.895Z,3.60
2023-02-25T05:38:09.113Z,3.60
2023-02-25T05:39:13.783Z,3.60
2023-02-25T05:40:17.579Z,3.60
2023-02-25T05:41:20.768Z,3.60
2023-02-25T05:42:25.221Z,3.70
2023-02-25T05:43:27.786Z,3.50
2023-02-25T05:44:31.547Z,3.50
2023-02-25T05:45:34.416Z,3.50
2023-02-25T05:46:38.600Z,3.50
2023-02-25T05:47:42.732Z,3.50
2023-02-25T05:48:46.779Z,3.50
2023-02-25T05:49:50.550Z,3.40
2023-02-25T05:51:00.892Z,3.40
2023-02-25T05:52:04.938Z,3.40
2023-02-25T05:53:10.206Z,3.50
2023-02-25T05:54:13.725Z,3.60
2023-02-25T05:55:16.787Z,3.50
2023-02-25T05:56:23.032Z,3.50
2023-02-25T05:57:26.277Z,3.60
2023-02-25T05:58:30.517Z,3.60
2023-02-25T05:59:32.966Z,3.70
2023-02-25T06:00:36.806Z,3.70
2023-02-25T06:01:40.145Z,3.60
2023-02-25T06:02:45.353Z,3.70
2023-02-25T06:03:49.194Z,3.70
2023-02-25T06:04:54.745Z,3.60
2023-02-25T06:05:57.332Z,3.60
2023-02-25T06:07:03.401Z,3.60
2023-02-25T06:08:06.581Z,3.70
2023-02-25T06:09:11.602Z,3.60
2023-02-25T06:10:14.314Z,3.70
2023-02-25T06:11:20.946Z,3.70
2023-02-25T06:12:23.944Z,3.70
2023-02-25T06:13:29.694Z,3.80
2023-02-25T06:14:32.464Z,3.80
2023-02-25T06:15:39.252Z,3.70
2023-02-25T06:16:44.707Z,3.70
2023-02-25T06:17:48.611Z,3.80
2023-02-25T06:18:51.945Z,3.80
2023-02-25T06:19:56.396Z,3.90
2023-02-25T06:21:05.513Z,3.80
2023-02-25T06:22:09.449Z,3.80
2023-02-25T06:23:14.492Z,3.80
2023-02-25T06:24:18.922Z,3.80
2023-02-25T06:25:22.623Z,3.80
2023-02-25T06:26:25.352Z,3.90
2023-02-25T06:27:30.127Z,3.90
2023-02-25T06:28:33.659Z,4.00
2023-02-25T06:29:42.177Z,4.00
2023-02-25T06:30:48.598Z,4.00
2023-02-25T06:31:51.153Z,3.90
2023-02-25T06:32:54.714Z,3.90
2023-02-25T06:33:57.421Z,3.90
2023-02-25T06:35:02.388Z,3.90
2023-02-25T06:36:05.747Z,3.90
2023-02-25T06:37:10.263Z,3.80
2023-02-25T06:38:12.744Z,3.90
2023-02-25T06:39:16.585Z,3.90
2023-02-25T06:40:21.338Z,3.90
2023-02-25T06:41:25.516Z,3.70
2023-02-25T06:42:28.581Z,3.70
2023-02-25T06:43:32.032Z,3.70
2023-02-25T06:44:34.594Z,3.80
2023-02-25T06:45:38.716Z,3.80
2023-02-25T06:46:42.225Z,3.80
2023-02-25T06:47:45.018Z,3.80
2023-02-25T06:48:48.603Z,3.70
2023-02-25T06:49:50.948Z,3.70
2023-02-25T06:50:55.128Z,3.70
2023-02-25T06:51:57.658Z,3.70
2023-02-25T06:53:02.056Z,3.70
2023-02-25T06:54:05.234Z,3.70
2023-02-25T06:55:10.090Z,3.70
2023-02-25T06:56:16.235Z,3.60
2023-02-25T06:57:20.380Z,3.60
2023-02-25T06:58:22.971Z,3.70
2023-02-25T06:59:26.810Z,3.70
2023-02-25T07:00:29.292Z,3.70
2023-02-25T07:01:33.802Z,3.70
2023-02-25T07:02:36.481Z,3.70
2023-02-25T07:03:40.171Z,3.80
2023-02-25T07:04:44.068Z,3.80
2023-02-25T07:05:47.966Z,3.80
2023-02-25T07:06:51.525Z,3.80
2023-02-25T07:07:55.842Z,3.80
2023-02-25T07:08:59.972Z,3.90
2023-02-25T07:10:02.601Z,3.80
2023-02-25T07:11:29.378Z,3.90
2023-02-25T07:12:32.601Z,3.90
2023-02-25T07:13:36.994Z,4.00
2023-02-25T07:14:40.953Z,4.00
2023-02-25T07:15:43.883Z,4.00
2023-02-25T07:16:47.729Z,4.00
2023-02-25T07:17:50.948Z,4.00
2023-02-25T07:18:54.798Z,4.00
2023-02-25T07:19:58.594Z,4.00
2023-02-25T07:21:01.213Z,4.00
2023-02-25T07:22:05.360Z,4.10
2023-02-25T07:23:09.328Z,4.10
2023-02-25T07:24:14.823Z,4.10
2023-02-25T07:25:19.104Z,4.00
2023-02-25T07:26:26.307Z,4.00
2023-02-25T07:27:29.365Z,4.10
2023-02-25T07:28:34.175Z,4.10
2023-02-25T07:29:40.910Z,4.10
2023-02-25T07:30:44.857Z,4.10
2023-02-25T07:31:48.223Z,4.10
2023-02-25T07:32:52.299Z,4.30
2023-02-25T07:33:56.855Z,4.10
2023-02-25T07:35:01.489Z,4.10
2023-02-25T07:36:05.508Z,4.10
2023-02-25T07:37:09.363Z,4.10
2023-02-25T07:38:12.930Z,4.10
2023-02-25T07:39:17.612Z,4.10
2023-02-25T07:40:20.992Z,4.20
2023-02-25T07:41:26.032Z,4.30
2023-02-25T07:42:38.407Z,4.30
2023-02-25T07:43:41.982Z,4.30
2023-02-25T07:44:46.928Z,4.20
2023-02-25T07:45:50.938Z,4.20
2023-02-25T07:46:54.565Z,4.20
2023-02-25T07:47:57.273Z,4.20
2023-02-25T07:49:01.971Z,4.20
2023-02-25T07:50:09.819Z,4.20
2023-02-25T07:51:18.826Z,4.10
2023-02-25T07:52:21.546Z,4.20
2023-02-25T07:53:25.361Z,4.20
2023-02-25T07:54:28.402Z,4.20
2023-02-25T07:55:32.379Z,4.30
2023-02-25T07:56:36.535Z,4.30
2023-02-25T07:57:40.373Z,4.30
2023-02-25T07:58:43.120Z,4.30
2023-02-25T07:59:47.057Z,4.40
2023-02-25T08:00:51.280Z,4.30
2023-02-25T08:01:53.952Z,4.20
2023-02-25T08:02:58.081Z,4.30
2023-02-25T08:04:04.624Z,4.40
2023-02-25T08:05:09.220Z,4.50
2023-02-25T08:06:12.745Z,4.40
2023-02-25T08:07:16.340Z,4.50
2023-02-25T08:08:19.029Z,4.40
2023-02-25T08:09:23.676Z,4.50
2023-02-25T08:10:26.255Z,4.60
2023-02-25T08:11:31.121Z,4.60
2023-02-25T08:12:35.110Z,4.60
2023-02-25T08:13:39.568Z,4.70
2023-02-25T08:14:42.057Z,4.80
2023-02-25T08:15:46.735Z,4.80
2023-02-25T08:16:51.302Z,4.80
2023-02-25T08:17:56.260Z,4.90
2023-02-25T08:19:00.256Z,4.90
2023-02-25T08:20:04.704Z,4.80
2023-02-25T08:21:09.751Z,4.70
2023-02-25T08:22:14.264Z,4.70
2023-02-25T08:23:16.862Z,4.70
2023-02-25T08:24:20.714Z,4.70
2023-02-25T08:25:23.188Z,4.70
2023-02-25T08:26:28.008Z,4.60
2023-02-25T08:27:31.952Z,4.50
2023-02-25T08:28:37.463Z,4.60
2023-02-25T08:29:40.904Z,4.60
2023-02-25T08:30:45.075Z,4.60
2023-02-25T08:31:49.034Z,4.60
2023-02-25T08:32:53.923Z,4.60
2023-02-25T08:33:58.224Z,4.50
2023-02-25T08:35:02.952Z,4.50
2023-02-25T08:36:10.160Z,4.50
2023-02-25T08:37:13.990Z,4.50
2023-02-25T08:38:19.850Z,4.60
2023-02-25T08:39:23.210Z,4.70
2023-02-25T08:40:27.153Z,4.70
2023-02-25T08:41:30.341Z,4.70
2023-02-25T08:42:34.381Z,4.80
2023-02-25T08:43:41.220Z,4.80
2023-02-25T08:44:45.298Z,4.90
2023-02-25T08:45:49.612Z,4.90
2023-02-25T08:46:53.426Z,5.00
2023-02-25T08:47:56.552Z,5.10
2023-02-25T08:49:02.003Z,5.20
2023-02-25T08:50:05.578Z,5.20
2023-02-25T08:51:11.818Z,5.10
2023-02-25T08:52:14.966Z,5.20
2023-02-25T08:53:19.316Z,5.10
2023-02-25T08:54:23.517Z,5.20
2023-02-25T08:55:27.001Z,5.10
2023-02-25T08:56:31.034Z,5.10
2023-02-25T08:57:33.579Z,5.10
2023-02-25T08:58:40.105Z,5.30
2023-02-25T08:59:44.592Z,5.40
2023-02-25T09:00:50.188Z,5.40
2023-02-25T09:01:56.473Z,5.50
2023-02-25T09:03:00.480Z,5.50
2023-02-25T09:04:04.223Z,5.50
2023-02-25T09:05:08.733Z,5.50
2023-02-25T09:06:12.729Z,5.50
2023-02-25T09:07:16.500Z,5.50
2023-02-25T09:08:19.251Z,5.50
2023-02-25T09:09:24.288Z,5.40
2023-02-25T09:10:27.250Z,5.40
2023-02-25T09:11:31.038Z,5.30
2023-02-25T09:12:33.564Z,5.20
2023-02-25T09:13:38.552Z,5.20
2023-02-25T09:14:42.143Z,5.10
2023-02-25T09:15:46.381Z,5.00
2023-02-25T09:16:49.476Z,5.00
2023-02-25T09:17:53.336Z,5.00
2023-02-25T09:18:56.147Z,5.10
2023-02-25T09:20:01.337Z,5.10
2023-02-25T09:21:04.919Z,5.10
2023-02-25T09:22:09.884Z,5.30
2023-02-25T09:23:12.510Z,5.30
2023-02-25T09:24:16.283Z,5.30
2023-02-25T09:25:19.126Z,5.40
2023-02-25T09:26:24.344Z,5.50
2023-02-25T09:27:28.929Z,5.50
2023-02-25T09:28:31.440Z,5.50
2023-02-25T09:29:36.934Z,5.60
2023-02-25T09:30:40.529Z,5.60
2023-02-25T09:31:44.885Z,5.70
2023-02-25T09:32:47.954Z,5.70
2023-02-25T09:33:51.829Z,5.70
2023-02-25T09:34:55.594Z,5.60
2023-02-25T09:36:06.050Z,5.50
2023-02-25T09:37:12.799Z,5.60
2023-02-25T09:38:15.450Z,5.60
2023-02-25T09:39:19.062Z,5.70
2023-02-25T09:40:22.981Z,5.70
2023-02-25T09:41:33.154Z,5.80
2023-02-25T09:42:51.096Z,5.90
2023-02-25T09:44:05.916Z,6.00
2023-02-25T09:45:17.880Z,5.90
2023-02-25T09:46:23.553Z,6.00
2023-02-25T09:47:32.552Z,6.20
2023-02-25T09:48:42.119Z,6.20
2023-02-25T09:49:53.437Z,6.30
2023-02-25T09:51:05.201Z,6.40
2023-02-25T09:52:18.822Z,6.50
2023-02-25T09:53:31.587Z,6.60
2023-02-25T09:54:45.082Z,6.60
2023-02-25T09:55:51.197Z,6.60
2023-02-25T09:57:02.410Z,6.30
2023-02-25T09:58:17.769Z,6.10
2023-02-25T09:59:22.534Z,6.10
2023-02-25T10:00:28.036Z,6.10
2023-02-25T10:01:39.482Z,6.10
2023-02-25T10:02:54.572Z,6.00
2023-02-25T10:04:05.212Z,5.90
2023-02-25T10:05:25.856Z,5.90
2023-02-25T10:06:37.211Z,5.90
2023-02-25T10:07:58.118Z,6.00
2023-02-25T10:09:15.098Z,6.10
2023-02-25T10:10:26.363Z,6.10
2023-02-25T10:11:44.725Z,6.20
2023-02-25T10:13:01.757Z,6.20
2023-02-25T10:14:27.011Z,6.30
2023-02-25T10:15:53.079Z,6.30
2023-02-25T10:17:09.050Z,6.30
2023-02-25T10:18:30.825Z,6.30
2023-02-25T10:19:52.792Z,6.20
2023-02-25T10:21:13.712Z,6.20
2023-02-25T10:22:43.185Z,6.30
2023-02-25T10:24:08.308Z,6.40
2023-02-25T10:25:17.930Z,6.30
2023-02-25T10:26:24.664Z,6.40
2023-02-25T10:27:33.085Z,6.40
2023-02-25T10:28:36.804Z,6.40
2023-02-25T10:29:46.522Z,6.20
2023-02-25T10:31:00.328Z,6.00
2023-02-25T10:32:21.249Z,5.90
2023-02-25T10:33:26.335Z,5.90
2023-02-25T10:34:33.330Z,5.80
2023-02-25T10:35:43.065Z,5.70
2023-02-25T10:36:53.923Z,5.70
2023-02-25T10:37:57.636Z,5.50
2023-02-25T10:39:01.352Z,5.50
2023-02-25T10:40:11.861Z,5.40
2023-02-25T10:41:15.985Z,5.50
2023-02-25T10:42:19.577Z,5.40
2023-02-25T10:43:26.522Z,5.50
2023-02-25T10:44:31.188Z,5.50
2023-02-25T10:45:33.845Z,5.50
2023-02-25T10:46:45.397Z,5.60
2023-02-25T10:47:57.677Z,5.60
2023-02-25T10:49:01.747Z,5.70
2023-02-25T10:50:16.416Z,5.70
2023-02-25T10:51:19.345Z,5.70
2023-02-25T10:52:23.138Z,5.80
2023-02-25T10:53:25.552Z,5.80
2023-02-25T10:54:30.040Z,5.90
2023-02-25T10:55:52.256Z,5.90
2023-02-25T10:57:02.752Z,5.90
2023-02-25T10:58:06.372Z,5.90
2023-02-25T10:59:28.471Z,5.90
2023-02-25T11:00:36.452Z,5.90
2023-02-25T11:01:43.798Z,5.90
2023-02-25T11:02:53.161Z,6.00
2023-02-25T11:04:00.680Z,6.00
2023-02-25T11:05:03.351Z,5.90
2023-02-25T11:06:15.208Z,5.90
2023-02-25T11:07:32.240Z,5.80
2023-02-25T11:08:34.842Z,5.70
2023-02-25T11:09:38.663Z,5.70
2023-02-25T11:10:41.384Z,5.80
2023-02-25T11:11:56.427Z,5.80
2023-02-25T11:13:00.808Z,5.80
2023-02-25T11:14:07.314Z,5.80
2023-02-25T11:15:44.674Z,5.80
2023-02-25T11:16:51.245Z,5.60
2023-02-25T11:17:55.799Z,5.60
2023-02-25T11:19:03.577Z,5.50
2023-02-25T11:20:22.405Z,5.60
2023-02-25T11:21:36.419Z,5.50
2023-02-25T11:22:43.383Z,5.30
2023-02-25T11:23:51.094Z,5.40
2023-02-25T11:25:00.427Z,5.40
2023-02-25T11:26:07.207Z,5.20
2023-02-25T11:27:28.765Z,5.20
2023-02-25T11:28:39.708Z,5.20
2023-02-25T11:29:46.309Z,5.20
2023-02-25T11:30:49.727Z,5.30
2023-02-25T11:32:16.416Z,5.40
2023-02-25T11:33:26.294Z,5.40
2023-02-25T11:34:33.266Z,5.50
2023-02-25T11:35:39.284Z,5.50
2023-02-25T11:36:43.401Z,5.50
2023-02-25T11:37:48.694Z,5.50
2023-02-25T11:39:07.679Z,5.60
2023-02-25T11:40:28.075Z,5.50
2023-02-25T11:41:33.750Z,5.70
2023-02-25T11:42:37.110Z,5.70
2023-02-25T11:43:43.207Z,5.80
2023-02-25T11:44:47.474Z,5.80
2023-02-25T11:45:55.426Z,5.80
2023-02-25T11:47:09.337Z,5.90
2023-02-25T11:48:20.280Z,6.00
2023-02-25T11:49:36.295Z,6.20
2023-02-25T11:50:49.509Z,6.20
2023-02-25T11:52:05.824Z,6.40
2023-02-25T11:53:25.734Z,6.50
2023-02-25T11:54:39.081Z,6.60
2023-02-25T11:55:55.105Z,6.50
2023-02-25T11:57:09.807Z,6.50
2023-02-25T11:58:28.596Z,6.50
2023-02-25T11:59:40.415Z,6.50
2023-02-25T12:00:52.420Z,6.60
2023-02-25T12:02:22.179Z,6.70
2023-02-25T12:04:01.278Z,6.50
2023-02-25T12:05:45.016Z,6.40
2023-02-25T12:07:22.083Z,6.10
2023-02-25T12:08:41.400Z,6.00
2023-02-25T12:10:29.635Z,6.00
2023-02-25T12:12:13.064Z,6.00
2023-02-25T12:13:48.759Z,6.00
2023-02-25T12:15:20.000Z,6.00
2023-02-25T12:16:59.263Z,6.00
2023-02-25T12:18:35.187Z,6.10
2023-02-25T12:20:17.930Z,6.10
2023-02-25T12:22:05.654Z,6.00
2023-02-25T12:23:47.302Z,5.90
2023-02-25T12:25:17.612Z,5.90
2023-02-25T12:26:36.806Z,5.90
2023-02-25T12:28:20.174Z,5.90
2023-02-25T12:29:49.286Z,5.90
2023-02-25T12:31:10.709Z,5.80
2023-02-25T12:32:41.380Z,5.80
2023-02-25T12:34:12.617Z,5.80
2023-02-25T12:35:44.744Z,5.80
2023-02-25T12:37:12.714Z,5.80
2023-02-25T12:39:04.604Z,5.70
2023-02-25T12:40:42.440Z,5.80
2023-02-25T12:41:54.841Z,5.80
2023-02-25T12:43:21.482Z,5.80
2023-02-25T12:45:21.733Z,5.80
2023-02-25T12:47:03.217Z,5.80
2023-02-25T12:48:48.614Z,5.80
2023-02-25T12:50:21.278Z,5.80
2023-02-25T12:52:02.354Z,5.80
2023-02-25T12:53:27.069Z,5.80
2023-02-25T12:54:54.248Z,5.70
2023-02-25T12:56:23.131Z,5.70
2023-02-25T12:57:50.017Z,5.70
2023-02-25T12:59:22.818Z,5.70
2023-02-25T13:01:06.058Z,5.60
2023-02-25T13:02:36.743Z,5.60
2023-02-25T13:04:05.622Z,5.50
2023-02-25T13:05:49.089Z,5.30
2023-02-25T13:07:35.376Z,5.20
2023-02-25T13:09:28.756Z,5.20
2023-02-25T13:10:49.698Z,5.10
2023-02-25T13:12:14.718Z,5.10
2023-02-25T13:13:50.731Z,5.10
2023-02-25T13:15:11.251Z,5.00
2023-02-25T13:16:30.242Z,5.00
2023-02-25T13:18:07.300Z,5.00
2023-02-25T13:19:42.978Z,5.10
2023-02-25T13:21:15.203Z,5.20
2023-02-25T13:22:38.020Z,5.40
2023-02-25T13:24:01.398Z,5.60
2023-02-25T13:25:16.209Z,5.70
2023-02-25T13:26:46.774Z,5.90
2023-02-25T13:28:08.468Z,6.10
2023-02-25T13:29:31.330Z,6.30
2023-02-25T13:30:49.615Z,6.30
2023-02-25T13:32:10.826Z,6.50
2023-02-25T13:33:46.628Z,6.50
2023-02-25T13:35:15.475Z,6.50
2023-02-25T13:36:48.682Z,6.60
2023-02-25T13:38:12.682Z,6.80
2023-02-25T13:39:44.550Z,6.90
2023-02-25T13:41:07.351Z,7.10
2023-02-25T13:42:30.938Z,7.40
2023-02-25T13:44:13.403Z,7.50
2023-02-25T13:45:48.879Z,7.50
2023-02-25T13:47:25.742Z,7.40
2023-02-25T13:49:00.715Z,7.10
2023-02-25T13:50:29.963Z,6.90
2023-02-25T13:52:15.301Z,6.60
2023-02-25T13:53:49.563Z,6.60
2023-02-25T13:55:39.210Z,6.70
2023-02-25T13:57:00.895Z,6.70
2023-02-25T13:58:37.988Z,6.80
2023-02-25T14:00:10.327Z,6.90
2023-02-25T14:01:39.302Z,6.80
2023-02-25T14:03:04.635Z,6.60
2023-02-25T14:04:35.356Z,6.60
2023-02-25T14:06:16.658Z,6.50
2023-02-25T14:07:49.009Z,6.60
2023-02-25T14:09:09.605Z,6.60
2023-02-25T14:10:45.973Z,6.60
2023-02-25T14:12:12.423Z,6.60
2023-02-25T14:13:44.461Z,6.70
2023-02-25T14:15:17.330Z,6.60
2023-02-25T14:16:40.392Z,6.50
2023-02-25T14:18:19.684Z,6.60
2023-02-25T14:19:47.466Z,6.70
2023-02-25T14:21:08.585Z,6.70
2023-02-25T14:22:28.177Z,6.60
2023-02-25T14:23:48.505Z,6.50
2023-02-25T14:25:05.633Z,6.40
2023-02-25T14:26:27.965Z,6.30
2023-02-25T14:27:42.916Z,6.30
2023-02-25T14:29:04.841Z,6.20
2023-02-25T14:30:22.633Z,6.20
2023-02-25T14:31:39.991Z,6.10
2023-02-25T14:33:26.036Z,6.10
2023-02-25T14:34:46.547Z,6.00
2023-02-25T14:36:13.537Z,5.90
2023-02-25T14:37:40.819Z,6.00
2023-02-25T14:39:07.327Z,6.00
2023-02-25T14:40:30.940Z,6.00
2023-02-25T14:41:54.140Z,6.00
2023-02-25T14:43:26.315Z,6.10
2023-02-25T14:44:39.037Z,6.00
2023-02-25T14:45:48.351Z,6.10
2023-02-25T14:47:00.969Z,6.10
2023-02-25T14:48:12.847Z,6.00
2023-02-25T14:49:26.686Z,6.00
2023-02-25T14:50:38.207Z,6.00
2023-02-25T14:52:09.856Z,6.00
2023-02-25T14:53:47.171Z,6.10
2023-02-25T14:55:44.503Z,5.90
2023-02-25T14:57:16.590Z,5.90
2023-02-25T14:58:48.444Z,5.90
2023-02-25T15:00:22.999Z,5.90
2023-02-25T15:01:45.187Z,5.80
2023-02-25T15:03:09.005Z,5.70
2023-02-25T15:04:26.049Z,5.60
2023-02-25T15:05:55.139Z,5.50
2023-02-25T15:07:22.913Z,5.40
2023-02-25T15:08:51.030Z,5.30
2023-02-25T15:10:27.987Z,5.10
2023-02-25T15:11:58.816Z,5.00
2023-02-25T15:13:47.918Z,5.00
2023-02-25T15:15:21.848Z,5.00
2023-02-25T15:17:01.271Z,5.00
2023-02-25T15:19:08.300Z,5.10
2023-02-25T15:20:28.091Z,5.10
2023-02-25T15:21:38.106Z,5.10
2023-02-25T15:22:57.209Z,5.10
2023-02-25T15:24:01.771Z,5.20
2023-02-25T15:25:40.795Z,5.20
2023-02-25T15:26:45.948Z,5.20
2023-02-25T15:27:56.761Z,5.20
2023-02-25T15:29:01.282Z,5.20
2023-02-25T15:30:08.482Z,5.30
2023-02-25T15:31:30.667Z,5.20
2023-02-25T15:33:07.734Z,5.20
2023-02-25T15:34:35.904Z,5.10
2023-02-25T15:35:59.010Z,5.20
2023-02-25T15:37:32.426Z,5.20
2023-02-25T15:38:46.884Z,5.30
2023-02-25T15:39:52.185Z,5.20
2023-02-25T15:40:57.607Z,5.20
2023-02-25T15:42:04.807Z,5.10
2023-02-25T15:43:39.991Z,5.00
2023-02-25T15:44:44.243Z,5.10
2023-02-25T15:45:48.029Z,5.20
2023-02-25T15:47:11.720Z,5.20
2023-02-25T15:48:40.500Z,5.30